Death Valley, California
Current Conditions -  °F | °C
As of 12:52 AM on Thursday 23 Oct 2014 (Local Time) from KDRA Reporting Station
Clear Clear  
Wind Chill: 57°   Ceiling: Unl
Heat Index: 57°   Visibility: 10mi
Dew Point: 19°   Wind: 3mph
Humidity: 23%   Direction: NA
Pressure: 30.09"   Gusts: NA
Location:  36.46°N, 116.87°W
Report Text: KDRA 230752Z AUTO VRB03KT 10SM CLR 14/M07 A3009 RMK AO2 SLP154 T01391072 402670100
Loading
Personal Weather Stations






























Interactive Weather Map
Tropical Storm Tracking
New forecast layout! Learn more

10-Day Weather Forecast

Advertisements
Track Severe Weather on mobile